<?xml version="1.0" encoding="UTF-8" standalone="no" ?>
<gpx xmlns="http://www.topografix.com/GPX/1/1" xmlns:xsi="http://www.w3.org/2001/XMLSchema-instance" xsi:schemaLocation="http://www.topografix.com/GPX/1/1 http://www.topografix.com/GPX/1/1/gpx.xsd" version="1.1" creator="VisuGPX - https://www.visugpx.com">
  <metadata>
    <name>Cime et crete du ferion</name>
    <desc><![CDATA[Depuis levens
Sortie cam du 23/4/2017]]></desc>
  </metadata>
  <trk>
    <name><![CDATA[2017-04-23 10:00]]></name>
    <desc><![CDATA[<p>Heure de départ: 04/23/2017 10:00<br/>Heure d'arrivée: 04/23/2017 15:45<br/>Distance: 11,3 km (05:44)<br/>Temps déplacement: 03:18<br/>Vitesse moyenne: 1,97 km/h<br/>Vitesse moyenne mouv.: 3,42 km/h<br/>Vitesse Max.: 10,11 km/h<br/>Altitude minimale: 649 m<br/>Altitude maximale: 1409 m<br/>Vitesse de montée: 401,9 m/h<br/>Vitesse de descente: -236,1 m/h<br/>Gain d'altitude: 840 m<br/>Perte d'altitude: -831 m<br/>Temps de montée: 02:05<br/>Temps de descente: 03:31<br/></p><hr align="center" width="480" style="height: 2px; width: 517px"/>]]></desc>
    <trkseg>
      <trkpt lat="43.84758" lon="7.2503">
        <ele>662.08</ele>
        <time>2017-04-23T08:00:27Z</time>
      </trkpt>
      <trkpt lat="43.84776" lon="7.25036">
        <ele>664.18</ele>
        <time>2017-04-23T08:07:04Z</time>
      </trkpt>
      <trkpt lat="43.84787" lon="7.25056">
        <ele>658.91</ele>
        <time>2017-04-23T08:07:25Z</time>
      </trkpt>
      <trkpt lat="43.84783" lon="7.25082">
        <ele>660.72</ele>
        <time>2017-04-23T08:09:30Z</time>
      </trkpt>
      <trkpt lat="43.84775" lon="7.25105">
        <ele>663.85</ele>
        <time>2017-04-23T08:09:53Z</time>
      </trkpt>
      <trkpt lat="43.84758" lon="7.25118">
        <ele>660.87</ele>
        <time>2017-04-23T08:10:16Z</time>
      </trkpt>
      <trkpt lat="43.84748" lon="7.25139">
        <ele>662.25</ele>
        <time>2017-04-23T08:10:36Z</time>
      </trkpt>
      <trkpt lat="43.84744" lon="7.25165">
        <ele>664.6</ele>
        <time>2017-04-23T08:10:56Z</time>
      </trkpt>
      <trkpt lat="43.84739" lon="7.25189">
        <ele>669.16</ele>
        <time>2017-04-23T08:11:19Z</time>
      </trkpt>
      <trkpt lat="43.84724" lon="7.25206">
        <ele>669.92</ele>
        <time>2017-04-23T08:11:54Z</time>
      </trkpt>
      <trkpt lat="43.84709" lon="7.25221">
        <ele>669.16</ele>
        <time>2017-04-23T08:12:23Z</time>
      </trkpt>
      <trkpt lat="43.84693" lon="7.25235">
        <ele>675.58</ele>
        <time>2017-04-23T08:12:53Z</time>
      </trkpt>
      <trkpt lat="43.84695" lon="7.2526">
        <ele>687.67</ele>
        <time>2017-04-23T08:13:29Z</time>
      </trkpt>
      <trkpt lat="43.84711" lon="7.25272">
        <ele>692.98</ele>
        <time>2017-04-23T08:13:52Z</time>
      </trkpt>
      <trkpt lat="43.84728" lon="7.25281">
        <ele>687.99</ele>
        <time>2017-04-23T08:14:25Z</time>
      </trkpt>
      <trkpt lat="43.84747" lon="7.2528">
        <ele>700.03</ele>
        <time>2017-04-23T08:14:47Z</time>
      </trkpt>
      <trkpt lat="43.84765" lon="7.2528">
        <ele>711.86</ele>
        <time>2017-04-23T08:15:28Z</time>
      </trkpt>
      <trkpt lat="43.84785" lon="7.25284">
        <ele>712.87</ele>
        <time>2017-04-23T08:16:00Z</time>
      </trkpt>
      <trkpt lat="43.84803" lon="7.2528">
        <ele>719.95</ele>
        <time>2017-04-23T08:16:18Z</time>
      </trkpt>
      <trkpt lat="43.84822" lon="7.25278">
        <ele>717.06</ele>
        <time>2017-04-23T08:16:54Z</time>
      </trkpt>
      <trkpt lat="43.84841" lon="7.25287">
        <ele>721.19</ele>
        <time>2017-04-23T08:17:41Z</time>
      </trkpt>
      <trkpt lat="43.84859" lon="7.25289">
        <ele>725.03</ele>
        <time>2017-04-23T08:17:56Z</time>
      </trkpt>
      <trkpt lat="43.84877" lon="7.25294">
        <ele>731.09</ele>
        <time>2017-04-23T08:18:20Z</time>
      </trkpt>
      <trkpt lat="43.84895" lon="7.25299">
        <ele>735.19</ele>
        <time>2017-04-23T08:18:44Z</time>
      </trkpt>
      <trkpt lat="43.84913" lon="7.25302">
        <ele>738.42</ele>
        <time>2017-04-23T08:19:07Z</time>
      </trkpt>
      <trkpt lat="43.84932" lon="7.25304">
        <ele>747.32</ele>
        <time>2017-04-23T08:19:26Z</time>
      </trkpt>
      <trkpt lat="43.8495" lon="7.25313">
        <ele>741.4</ele>
        <time>2017-04-23T08:20:11Z</time>
      </trkpt>
      <trkpt lat="43.8497" lon="7.25315">
        <ele>744.86</ele>
        <time>2017-04-23T08:20:28Z</time>
      </trkpt>
      <trkpt lat="43.84989" lon="7.25316">
        <ele>752.18</ele>
        <time>2017-04-23T08:20:48Z</time>
      </trkpt>
      <trkpt lat="43.85007" lon="7.25321">
        <ele>747.26</ele>
        <time>2017-04-23T08:21:01Z</time>
      </trkpt>
      <trkpt lat="43.85025" lon="7.25327">
        <ele>743.45</ele>
        <time>2017-04-23T08:21:14Z</time>
      </trkpt>
      <trkpt lat="43.85044" lon="7.25333">
        <ele>744.13</ele>
        <time>2017-04-23T08:21:29Z</time>
      </trkpt>
      <trkpt lat="43.85062" lon="7.25338">
        <ele>746.48</ele>
        <time>2017-04-23T08:21:42Z</time>
      </trkpt>
      <trkpt lat="43.8508" lon="7.25344">
        <ele>747.1</ele>
        <time>2017-04-23T08:21:59Z</time>
      </trkpt>
      <trkpt lat="43.85098" lon="7.2534">
        <ele>753.32</ele>
        <time>2017-04-23T08:22:18Z</time>
      </trkpt>
      <trkpt lat="43.85117" lon="7.25339">
        <ele>760.49</ele>
        <time>2017-04-23T08:22:38Z</time>
      </trkpt>
      <trkpt lat="43.85135" lon="7.25332">
        <ele>755.8</ele>
        <time>2017-04-23T08:23:00Z</time>
      </trkpt>
      <trkpt lat="43.85154" lon="7.25335">
        <ele>748.59</ele>
        <time>2017-04-23T08:23:24Z</time>
      </trkpt>
      <trkpt lat="43.85172" lon="7.25333">
        <ele>738.11</ele>
        <time>2017-04-23T08:23:54Z</time>
      </trkpt>
      <trkpt lat="43.85189" lon="7.25342">
        <ele>736.57</ele>
        <time>2017-04-23T08:24:13Z</time>
      </trkpt>
      <trkpt lat="43.85204" lon="7.25356">
        <ele>727.89</ele>
        <time>2017-04-23T08:26:42Z</time>
      </trkpt>
      <trkpt lat="43.85212" lon="7.25381">
        <ele>730.19</ele>
        <time>2017-04-23T08:27:05Z</time>
      </trkpt>
      <trkpt lat="43.85218" lon="7.25405">
        <ele>729.8</ele>
        <time>2017-04-23T08:27:28Z</time>
      </trkpt>
      <trkpt lat="43.85224" lon="7.25429">
        <ele>742.86</ele>
        <time>2017-04-23T08:27:52Z</time>
      </trkpt>
      <trkpt lat="43.85232" lon="7.25453">
        <ele>744.43</ele>
        <time>2017-04-23T08:28:19Z</time>
      </trkpt>
      <trkpt lat="43.85244" lon="7.25472">
        <ele>748.49</ele>
        <time>2017-04-23T08:28:40Z</time>
      </trkpt>
      <trkpt lat="43.85252" lon="7.25495">
        <ele>755.86</ele>
        <time>2017-04-23T08:29:01Z</time>
      </trkpt>
      <trkpt lat="43.85256" lon="7.2552">
        <ele>756.08</ele>
        <time>2017-04-23T08:29:22Z</time>
      </trkpt>
      <trkpt lat="43.85268" lon="7.2554">
        <ele>756.86</ele>
        <time>2017-04-23T08:29:46Z</time>
      </trkpt>
      <trkpt lat="43.85282" lon="7.25558">
        <ele>766.5</ele>
        <time>2017-04-23T08:30:21Z</time>
      </trkpt>
      <trkpt lat="43.85297" lon="7.25575">
        <ele>764.87</ele>
        <time>2017-04-23T08:30:50Z</time>
      </trkpt>
      <trkpt lat="43.85306" lon="7.25597">
        <ele>766.46</ele>
        <time>2017-04-23T08:31:08Z</time>
      </trkpt>
      <trkpt lat="43.85318" lon="7.25615">
        <ele>771.58</ele>
        <time>2017-04-23T08:31:27Z</time>
      </trkpt>
      <trkpt lat="43.85332" lon="7.25632">
        <ele>772.97</ele>
        <time>2017-04-23T08:31:45Z</time>
      </trkpt>
      <trkpt lat="43.85346" lon="7.2565">
        <ele>771.6</ele>
        <time>2017-04-23T08:32:00Z</time>
      </trkpt>
      <trkpt lat="43.85363" lon="7.25658">
        <ele>778.51</ele>
        <time>2017-04-23T08:32:22Z</time>
      </trkpt>
      <trkpt lat="43.85374" lon="7.25678">
        <ele>779.23</ele>
        <time>2017-04-23T08:32:42Z</time>
      </trkpt>
      <trkpt lat="43.85389" lon="7.25693">
        <ele>786.61</ele>
        <time>2017-04-23T08:33:04Z</time>
      </trkpt>
      <trkpt lat="43.85404" lon="7.25707">
        <ele>796.74</ele>
        <time>2017-04-23T08:33:25Z</time>
      </trkpt>
      <trkpt lat="43.85419" lon="7.25725">
        <ele>798.86</ele>
        <time>2017-04-23T08:33:45Z</time>
      </trkpt>
      <trkpt lat="43.85437" lon="7.25736">
        <ele>794.88</ele>
        <time>2017-04-23T08:34:06Z</time>
      </trkpt>
      <trkpt lat="43.85427" lon="7.25756">
        <ele>797.08</ele>
        <time>2017-04-23T08:34:27Z</time>
      </trkpt>
      <trkpt lat="43.85415" lon="7.25779">
        <ele>791.95</ele>
        <time>2017-04-23T08:34:40Z</time>
      </trkpt>
      <trkpt lat="43.85409" lon="7.25802">
        <ele>789.52</ele>
        <time>2017-04-23T08:35:02Z</time>
      </trkpt>
      <trkpt lat="43.85394" lon="7.25816">
        <ele>798.19</ele>
        <time>2017-04-23T08:35:23Z</time>
      </trkpt>
      <trkpt lat="43.85403" lon="7.25837">
        <ele>804.12</ele>
        <time>2017-04-23T08:36:03Z</time>
      </trkpt>
      <trkpt lat="43.85421" lon="7.25845">
        <ele>806.5</ele>
        <time>2017-04-23T08:36:19Z</time>
      </trkpt>
      <trkpt lat="43.8544" lon="7.25847">
        <ele>807.17</ele>
        <time>2017-04-23T08:36:34Z</time>
      </trkpt>
      <trkpt lat="43.85458" lon="7.25852">
        <ele>810.17</ele>
        <time>2017-04-23T08:36:48Z</time>
      </trkpt>
      <trkpt lat="43.85477" lon="7.25859">
        <ele>815.15</ele>
        <time>2017-04-23T08:37:04Z</time>
      </trkpt>
      <trkpt lat="43.85494" lon="7.25865">
        <ele>812.89</ele>
        <time>2017-04-23T08:37:25Z</time>
      </trkpt>
      <trkpt lat="43.85514" lon="7.25872">
        <ele>812.18</ele>
        <time>2017-04-23T08:37:42Z</time>
      </trkpt>
      <trkpt lat="43.85528" lon="7.25889">
        <ele>815.56</ele>
        <time>2017-04-23T08:37:59Z</time>
      </trkpt>
      <trkpt lat="43.85546" lon="7.25894">
        <ele>821.86</ele>
        <time>2017-04-23T08:38:14Z</time>
      </trkpt>
      <trkpt lat="43.85564" lon="7.25889">
        <ele>815.69</ele>
        <time>2017-04-23T08:38:36Z</time>
      </trkpt>
      <trkpt lat="43.85582" lon="7.25895">
        <ele>815.19</ele>
        <time>2017-04-23T08:39:17Z</time>
      </trkpt>
      <trkpt lat="43.85601" lon="7.25898">
        <ele>819.89</ele>
        <time>2017-04-23T08:39:32Z</time>
      </trkpt>
      <trkpt lat="43.85618" lon="7.25907">
        <ele>820.4</ele>
        <time>2017-04-23T08:39:52Z</time>
      </trkpt>
      <trkpt lat="43.85636" lon="7.25911">
        <ele>818.52</ele>
        <time>2017-04-23T08:40:14Z</time>
      </trkpt>
      <trkpt lat="43.85652" lon="7.25921">
        <ele>828.49</ele>
        <time>2017-04-23T08:41:03Z</time>
      </trkpt>
      <trkpt lat="43.85669" lon="7.25935">
        <ele>835.89</ele>
        <time>2017-04-23T08:41:18Z</time>
      </trkpt>
      <trkpt lat="43.85688" lon="7.25937">
        <ele>842.12</ele>
        <time>2017-04-23T08:41:37Z</time>
      </trkpt>
      <trkpt lat="43.85706" lon="7.25947">
        <ele>841.45</ele>
        <time>2017-04-23T08:42:04Z</time>
      </trkpt>
      <trkpt lat="43.85722" lon="7.25935">
        <ele>848.59</ele>
        <time>2017-04-23T08:42:22Z</time>
      </trkpt>
      <trkpt lat="43.85739" lon="7.25947">
        <ele>845.97</ele>
        <time>2017-04-23T08:43:01Z</time>
      </trkpt>
      <trkpt lat="43.85758" lon="7.25949">
        <ele>854.14</ele>
        <time>2017-04-23T08:43:21Z</time>
      </trkpt>
      <trkpt lat="43.85775" lon="7.25959">
        <ele>852.49</ele>
        <time>2017-04-23T08:43:45Z</time>
      </trkpt>
      <trkpt lat="43.85793" lon="7.25957">
        <ele>857.67</ele>
        <time>2017-04-23T08:44:08Z</time>
      </trkpt>
      <trkpt lat="43.85811" lon="7.25962">
        <ele>856.04</ele>
        <time>2017-04-23T08:44:37Z</time>
      </trkpt>
      <trkpt lat="43.8583" lon="7.25963">
        <ele>866.1</ele>
        <time>2017-04-23T08:45:00Z</time>
      </trkpt>
      <trkpt lat="43.85848" lon="7.25964">
        <ele>867.27</ele>
        <time>2017-04-23T08:45:21Z</time>
      </trkpt>
      <trkpt lat="43.85866" lon="7.25965">
        <ele>868.56</ele>
        <time>2017-04-23T08:45:46Z</time>
      </trkpt>
      <trkpt lat="43.85884" lon="7.25967">
        <ele>881.14</ele>
        <time>2017-04-23T08:46:07Z</time>
      </trkpt>
      <trkpt lat="43.85902" lon="7.25975">
        <ele>885.24</ele>
        <time>2017-04-23T08:46:35Z</time>
      </trkpt>
      <trkpt lat="43.8592" lon="7.25974">
        <ele>886.48</ele>
        <time>2017-04-23T08:47:02Z</time>
      </trkpt>
      <trkpt lat="43.85938" lon="7.25975">
        <ele>889.89</ele>
        <time>2017-04-23T08:47:32Z</time>
      </trkpt>
      <trkpt lat="43.85955" lon="7.25983">
        <ele>889.28</ele>
        <time>2017-04-23T08:48:16Z</time>
      </trkpt>
      <trkpt lat="43.85974" lon="7.25984">
        <ele>893.18</ele>
        <time>2017-04-23T08:48:31Z</time>
      </trkpt>
      <trkpt lat="43.8599" lon="7.25994">
        <ele>897.88</ele>
        <time>2017-04-23T08:48:54Z</time>
      </trkpt>
      <trkpt lat="43.86008" lon="7.26001">
        <ele>900.48</ele>
        <time>2017-04-23T08:49:11Z</time>
      </trkpt>
      <trkpt lat="43.86026" lon="7.26004">
        <ele>904.4</ele>
        <time>2017-04-23T08:49:34Z</time>
      </trkpt>
      <trkpt lat="43.86044" lon="7.25997">
        <ele>912.86</ele>
        <time>2017-04-23T08:50:12Z</time>
      </trkpt>
      <trkpt lat="43.86059" lon="7.25984">
        <ele>910.14</ele>
        <time>2017-04-23T08:52:46Z</time>
      </trkpt>
      <trkpt lat="43.86075" lon="7.25996">
        <ele>924.79</ele>
        <time>2017-04-23T08:57:53Z</time>
      </trkpt>
      <trkpt lat="43.86094" lon="7.26003">
        <ele>921.89</ele>
        <time>2017-04-23T08:58:19Z</time>
      </trkpt>
      <trkpt lat="43.86107" lon="7.2602">
        <ele>920.21</ele>
        <time>2017-04-23T08:59:06Z</time>
      </trkpt>
      <trkpt lat="43.86104" lon="7.26045">
        <ele>926.79</ele>
        <time>2017-04-23T08:59:36Z</time>
      </trkpt>
      <trkpt lat="43.86096" lon="7.26068">
        <ele>939.25</ele>
        <time>2017-04-23T09:00:10Z</time>
      </trkpt>
      <trkpt lat="43.86087" lon="7.26091">
        <ele>952.39</ele>
        <time>2017-04-23T09:00:52Z</time>
      </trkpt>
      <trkpt lat="43.86078" lon="7.26113">
        <ele>949.11</ele>
        <time>2017-04-23T09:01:22Z</time>
      </trkpt>
      <trkpt lat="43.86067" lon="7.26135">
        <ele>957.15</ele>
        <time>2017-04-23T09:01:49Z</time>
      </trkpt>
      <trkpt lat="43.86083" lon="7.26147">
        <ele>964.88</ele>
        <time>2017-04-23T09:03:11Z</time>
      </trkpt>
      <trkpt lat="43.86097" lon="7.26164">
        <ele>965.99</ele>
        <time>2017-04-23T09:03:38Z</time>
      </trkpt>
      <trkpt lat="43.86109" lon="7.26185">
        <ele>971.77</ele>
        <time>2017-04-23T09:04:01Z</time>
      </trkpt>
      <trkpt lat="43.86124" lon="7.26198">
        <ele>975.91</ele>
        <time>2017-04-23T09:04:20Z</time>
      </trkpt>
      <trkpt lat="43.86141" lon="7.26209">
        <ele>977.52</ele>
        <time>2017-04-23T09:04:42Z</time>
      </trkpt>
      <trkpt lat="43.86157" lon="7.26222">
        <ele>979.09</ele>
        <time>2017-04-23T09:05:34Z</time>
      </trkpt>
      <trkpt lat="43.86173" lon="7.26236">
        <ele>985.19</ele>
        <time>2017-04-23T09:05:58Z</time>
      </trkpt>
      <trkpt lat="43.86189" lon="7.26247">
        <ele>983.4</ele>
        <time>2017-04-23T09:06:15Z</time>
      </trkpt>
      <trkpt lat="43.86205" lon="7.26258">
        <ele>984.27</ele>
        <time>2017-04-23T09:06:35Z</time>
      </trkpt>
      <trkpt lat="43.86216" lon="7.26279">
        <ele>991.09</ele>
        <time>2017-04-23T09:06:52Z</time>
      </trkpt>
      <trkpt lat="43.86231" lon="7.26295">
        <ele>992.16</ele>
        <time>2017-04-23T09:07:13Z</time>
      </trkpt>
      <trkpt lat="43.8624" lon="7.26317">
        <ele>995.88</ele>
        <time>2017-04-23T09:07:30Z</time>
      </trkpt>
      <trkpt lat="43.86258" lon="7.26326">
        <ele>995.15</ele>
        <time>2017-04-23T09:07:48Z</time>
      </trkpt>
      <trkpt lat="43.86272" lon="7.2634">
        <ele>998.39</ele>
        <time>2017-04-23T09:08:09Z</time>
      </trkpt>
      <trkpt lat="43.86291" lon="7.26344">
        <ele>1004.17</ele>
        <time>2017-04-23T09:08:29Z</time>
      </trkpt>
      <trkpt lat="43.86307" lon="7.26359">
        <ele>1003.47</ele>
        <time>2017-04-23T09:08:49Z</time>
      </trkpt>
      <trkpt lat="43.86323" lon="7.26372">
        <ele>1005.39</ele>
        <time>2017-04-23T09:09:06Z</time>
      </trkpt>
      <trkpt lat="43.86335" lon="7.26392">
        <ele>1010.1</ele>
        <time>2017-04-23T09:09:26Z</time>
      </trkpt>
      <trkpt lat="43.86353" lon="7.26399">
        <ele>1010.15</ele>
        <time>2017-04-23T09:09:50Z</time>
      </trkpt>
      <trkpt lat="43.86346" lon="7.26424">
        <ele>1019.95</ele>
        <time>2017-04-23T09:10:10Z</time>
      </trkpt>
      <trkpt lat="43.86354" lon="7.26447">
        <ele>1019.19</ele>
        <time>2017-04-23T09:11:40Z</time>
      </trkpt>
      <trkpt lat="43.86355" lon="7.26473">
        <ele>1017.36</ele>
        <time>2017-04-23T09:11:48Z</time>
      </trkpt>
      <trkpt lat="43.86367" lon="7.26452">
        <ele>1024.14</ele>
        <time>2017-04-23T09:11:55Z</time>
      </trkpt>
      <trkpt lat="43.86385" lon="7.26449">
        <ele>1031.23</ele>
        <time>2017-04-23T09:12:26Z</time>
      </trkpt>
      <trkpt lat="43.86385" lon="7.26476">
        <ele>1038.47</ele>
        <time>2017-04-23T09:12:39Z</time>
      </trkpt>
      <trkpt lat="43.86394" lon="7.26501">
        <ele>1043.28</ele>
        <time>2017-04-23T09:13:03Z</time>
      </trkpt>
      <trkpt lat="43.86409" lon="7.26487">
        <ele>1038.58</ele>
        <time>2017-04-23T09:13:15Z</time>
      </trkpt>
      <trkpt lat="43.86432" lon="7.26492">
        <ele>1044.37</ele>
        <time>2017-04-23T09:13:43Z</time>
      </trkpt>
      <trkpt lat="43.86446" lon="7.26473">
        <ele>1040.8</ele>
        <time>2017-04-23T09:13:48Z</time>
      </trkpt>
      <trkpt lat="43.86448" lon="7.26502">
        <ele>1039.33</ele>
        <time>2017-04-23T09:14:03Z</time>
      </trkpt>
      <trkpt lat="43.86465" lon="7.2651">
        <ele>1046.13</ele>
        <time>2017-04-23T09:14:31Z</time>
      </trkpt>
      <trkpt lat="43.86477" lon="7.26532">
        <ele>1045.21</ele>
        <time>2017-04-23T09:14:47Z</time>
      </trkpt>
      <trkpt lat="43.86492" lon="7.26549">
        <ele>1053.86</ele>
        <time>2017-04-23T09:15:16Z</time>
      </trkpt>
      <trkpt lat="43.86509" lon="7.26562">
        <ele>1061.66</ele>
        <time>2017-04-23T09:15:37Z</time>
      </trkpt>
      <trkpt lat="43.86527" lon="7.26569">
        <ele>1057.62</ele>
        <time>2017-04-23T09:15:58Z</time>
      </trkpt>
      <trkpt lat="43.86545" lon="7.26574">
        <ele>1052.97</ele>
        <time>2017-04-23T09:16:33Z</time>
      </trkpt>
      <trkpt lat="43.86561" lon="7.26584">
        <ele>1054.16</ele>
        <time>2017-04-23T09:16:47Z</time>
      </trkpt>
      <trkpt lat="43.86579" lon="7.26596">
        <ele>1056.13</ele>
        <time>2017-04-23T09:17:04Z</time>
      </trkpt>
      <trkpt lat="43.86598" lon="7.26604">
        <ele>1064.08</ele>
        <time>2017-04-23T09:17:26Z</time>
      </trkpt>
      <trkpt lat="43.86617" lon="7.26601">
        <ele>1064.15</ele>
        <time>2017-04-23T09:17:54Z</time>
      </trkpt>
      <trkpt lat="43.86634" lon="7.26593">
        <ele>1061.91</ele>
        <time>2017-04-23T09:18:18Z</time>
      </trkpt>
      <trkpt lat="43.86652" lon="7.26585">
        <ele>1068.82</ele>
        <time>2017-04-23T09:18:34Z</time>
      </trkpt>
      <trkpt lat="43.8667" lon="7.26579">
        <ele>1068.1</ele>
        <time>2017-04-23T09:19:06Z</time>
      </trkpt>
      <trkpt lat="43.86689" lon="7.26583">
        <ele>1073.67</ele>
        <time>2017-04-23T09:19:33Z</time>
      </trkpt>
      <trkpt lat="43.86707" lon="7.26587">
        <ele>1081.38</ele>
        <time>2017-04-23T09:19:44Z</time>
      </trkpt>
      <trkpt lat="43.86725" lon="7.26592">
        <ele>1081.91</ele>
        <time>2017-04-23T09:20:09Z</time>
      </trkpt>
      <trkpt lat="43.86745" lon="7.26589">
        <ele>1084.04</ele>
        <time>2017-04-23T09:20:25Z</time>
      </trkpt>
      <trkpt lat="43.86762" lon="7.26596">
        <ele>1081.1</ele>
        <time>2017-04-23T09:20:47Z</time>
      </trkpt>
      <trkpt lat="43.86781" lon="7.266">
        <ele>1083.6</ele>
        <time>2017-04-23T09:21:14Z</time>
      </trkpt>
      <trkpt lat="43.86794" lon="7.26618">
        <ele>1091.18</ele>
        <time>2017-04-23T09:21:37Z</time>
      </trkpt>
      <trkpt lat="43.86806" lon="7.26637">
        <ele>1093.47</ele>
        <time>2017-04-23T09:21:55Z</time>
      </trkpt>
      <trkpt lat="43.86823" lon="7.26648">
        <ele>1097.65</ele>
        <time>2017-04-23T09:23:22Z</time>
      </trkpt>
      <trkpt lat="43.8684" lon="7.26657">
        <ele>1094.83</ele>
        <time>2017-04-23T09:23:32Z</time>
      </trkpt>
      <trkpt lat="43.86859" lon="7.26653">
        <ele>1093.33</ele>
        <time>2017-04-23T09:23:48Z</time>
      </trkpt>
      <trkpt lat="43.86875" lon="7.26641">
        <ele>1092.71</ele>
        <time>2017-04-23T09:24:03Z</time>
      </trkpt>
      <trkpt lat="43.86886" lon="7.26619">
        <ele>1094.02</ele>
        <time>2017-04-23T09:24:19Z</time>
      </trkpt>
      <trkpt lat="43.86898" lon="7.266">
        <ele>1090.67</ele>
        <time>2017-04-23T09:24:33Z</time>
      </trkpt>
      <trkpt lat="43.86905" lon="7.26577">
        <ele>1093.28</ele>
        <time>2017-04-23T09:24:51Z</time>
      </trkpt>
      <trkpt lat="43.86923" lon="7.26561">
        <ele>1095.13</ele>
        <time>2017-04-23T09:25:04Z</time>
      </trkpt>
      <trkpt lat="43.86943" lon="7.26545">
        <ele>1092.79</ele>
        <time>2017-04-23T09:25:17Z</time>
      </trkpt>
      <trkpt lat="43.86961" lon="7.26555">
        <ele>1093.15</ele>
        <time>2017-04-23T09:25:37Z</time>
      </trkpt>
      <trkpt lat="43.8698" lon="7.26561">
        <ele>1097.79</ele>
        <time>2017-04-23T09:25:49Z</time>
      </trkpt>
      <trkpt lat="43.86998" lon="7.26563">
        <ele>1101.7</ele>
        <time>2017-04-23T09:26:11Z</time>
      </trkpt>
      <trkpt lat="43.87015" lon="7.26547">
        <ele>1101.58</ele>
        <time>2017-04-23T09:26:33Z</time>
      </trkpt>
      <trkpt lat="43.87031" lon="7.26536">
        <ele>1104</ele>
        <time>2017-04-23T09:26:48Z</time>
      </trkpt>
      <trkpt lat="43.87048" lon="7.26527">
        <ele>1107.11</ele>
        <time>2017-04-23T09:27:07Z</time>
      </trkpt>
      <trkpt lat="43.8707" lon="7.26529">
        <ele>1107.18</ele>
        <time>2017-04-23T09:28:14Z</time>
      </trkpt>
      <trkpt lat="43.87053" lon="7.26543">
        <ele>1110.49</ele>
        <time>2017-04-23T09:31:03Z</time>
      </trkpt>
      <trkpt lat="43.8704" lon="7.2656">
        <ele>1109.93</ele>
        <time>2017-04-23T09:31:30Z</time>
      </trkpt>
      <trkpt lat="43.87029" lon="7.2658">
        <ele>1111.23</ele>
        <time>2017-04-23T09:32:01Z</time>
      </trkpt>
      <trkpt lat="43.8702" lon="7.26603">
        <ele>1119.18</ele>
        <time>2017-04-23T09:32:29Z</time>
      </trkpt>
      <trkpt lat="43.87016" lon="7.26627">
        <ele>1118.5</ele>
        <time>2017-04-23T09:33:05Z</time>
      </trkpt>
      <trkpt lat="43.87007" lon="7.2665">
        <ele>1125.59</ele>
        <time>2017-04-23T09:34:13Z</time>
      </trkpt>
      <trkpt lat="43.87001" lon="7.26674">
        <ele>1131.9</ele>
        <time>2017-04-23T09:34:49Z</time>
      </trkpt>
      <trkpt lat="43.86999" lon="7.26699">
        <ele>1147.46</ele>
        <time>2017-04-23T09:35:55Z</time>
      </trkpt>
      <trkpt lat="43.86992" lon="7.26723">
        <ele>1152.79</ele>
        <time>2017-04-23T09:36:37Z</time>
      </trkpt>
      <trkpt lat="43.86977" lon="7.26737">
        <ele>1161.51</ele>
        <time>2017-04-23T09:37:29Z</time>
      </trkpt>
      <trkpt lat="43.86962" lon="7.2675">
        <ele>1168.27</ele>
        <time>2017-04-23T09:38:02Z</time>
      </trkpt>
      <trkpt lat="43.86965" lon="7.26775">
        <ele>1176.98</ele>
        <time>2017-04-23T09:39:11Z</time>
      </trkpt>
      <trkpt lat="43.86953" lon="7.26796">
        <ele>1186.93</ele>
        <time>2017-04-23T09:40:55Z</time>
      </trkpt>
      <trkpt lat="43.86942" lon="7.26816">
        <ele>1195.86</ele>
        <time>2017-04-23T09:41:30Z</time>
      </trkpt>
      <trkpt lat="43.8693" lon="7.26836">
        <ele>1207.18</ele>
        <time>2017-04-23T09:42:35Z</time>
      </trkpt>
      <trkpt lat="43.86932" lon="7.26864">
        <ele>1230.2</ele>
        <time>2017-04-23T09:44:10Z</time>
      </trkpt>
      <trkpt lat="43.86943" lon="7.26886">
        <ele>1232.13</ele>
        <time>2017-04-23T09:45:27Z</time>
      </trkpt>
      <trkpt lat="43.86954" lon="7.26906">
        <ele>1238.18</ele>
        <time>2017-04-23T09:46:25Z</time>
      </trkpt>
      <trkpt lat="43.86964" lon="7.26928">
        <ele>1256.99</ele>
        <time>2017-04-23T09:48:01Z</time>
      </trkpt>
      <trkpt lat="43.8695" lon="7.26945">
        <ele>1263.12</ele>
        <time>2017-04-23T09:48:46Z</time>
      </trkpt>
      <trkpt lat="43.86941" lon="7.26968">
        <ele>1265.37</ele>
        <time>2017-04-23T09:49:45Z</time>
      </trkpt>
      <trkpt lat="43.8693" lon="7.26989">
        <ele>1274.25</ele>
        <time>2017-04-23T09:50:18Z</time>
      </trkpt>
      <trkpt lat="43.86948" lon="7.26998">
        <ele>1292.28</ele>
        <time>2017-04-23T09:51:05Z</time>
      </trkpt>
      <trkpt lat="43.86941" lon="7.27022">
        <ele>1304.08</ele>
        <time>2017-04-23T09:53:08Z</time>
      </trkpt>
      <trkpt lat="43.8694" lon="7.27048">
        <ele>1309.8</ele>
        <time>2017-04-23T09:54:14Z</time>
      </trkpt>
      <trkpt lat="43.86954" lon="7.27065">
        <ele>1319.71</ele>
        <time>2017-04-23T09:55:39Z</time>
      </trkpt>
      <trkpt lat="43.86971" lon="7.2708">
        <ele>1324.94</ele>
        <time>2017-04-23T09:55:52Z</time>
      </trkpt>
      <trkpt lat="43.86986" lon="7.27096">
        <ele>1333.45</ele>
        <time>2017-04-23T09:57:28Z</time>
      </trkpt>
      <trkpt lat="43.87" lon="7.27112">
        <ele>1345.19</ele>
        <time>2017-04-23T09:58:00Z</time>
      </trkpt>
      <trkpt lat="43.87014" lon="7.27129">
        <ele>1346.77</ele>
        <time>2017-04-23T09:58:32Z</time>
      </trkpt>
      <trkpt lat="43.87016" lon="7.27155">
        <ele>1364.29</ele>
        <time>2017-04-23T09:59:09Z</time>
      </trkpt>
      <trkpt lat="43.87026" lon="7.27178">
        <ele>1367.75</ele>
        <time>2017-04-23T09:59:46Z</time>
      </trkpt>
      <trkpt lat="43.8702" lon="7.27201">
        <ele>1370.29</ele>
        <time>2017-04-23T10:00:18Z</time>
      </trkpt>
      <trkpt lat="43.87026" lon="7.27225">
        <ele>1371.24</ele>
        <time>2017-04-23T10:00:36Z</time>
      </trkpt>
      <trkpt lat="43.87022" lon="7.27233">
        <ele>1374.19</ele>
        <time>2017-04-23T10:01:38Z</time>
      </trkpt>
      <trkpt lat="43.87012" lon="7.27255">
        <ele>1375.36</ele>
        <time>2017-04-23T10:02:14Z</time>
      </trkpt>
      <trkpt lat="43.87018" lon="7.27279">
        <ele>1374.21</ele>
        <time>2017-04-23T10:02:31Z</time>
      </trkpt>
      <trkpt lat="43.86998" lon="7.27286">
        <ele>1381.59</ele>
        <time>2017-04-23T10:04:24Z</time>
      </trkpt>
      <trkpt lat="43.86979" lon="7.27277">
        <ele>1384.19</ele>
        <time>2017-04-23T10:05:23Z</time>
      </trkpt>
      <trkpt lat="43.8696" lon="7.27277">
        <ele>1388.99</ele>
        <time>2017-04-23T10:05:49Z</time>
      </trkpt>
      <trkpt lat="43.86942" lon="7.27269">
        <ele>1391.67</ele>
        <time>2017-04-23T10:06:29Z</time>
      </trkpt>
      <trkpt lat="43.86924" lon="7.27267">
        <ele>1392.39</ele>
        <time>2017-04-23T10:06:44Z</time>
      </trkpt>
      <trkpt lat="43.86909" lon="7.27281">
        <ele>1402.76</ele>
        <time>2017-04-23T10:07:09Z</time>
      </trkpt>
      <trkpt lat="43.8689" lon="7.27281">
        <ele>1401.9</ele>
        <time>2017-04-23T10:07:48Z</time>
      </trkpt>
      <trkpt lat="43.86871" lon="7.27282">
        <ele>1408.88</ele>
        <time>2017-04-23T10:08:08Z</time>
      </trkpt>
      <trkpt lat="43.86854" lon="7.27276">
        <ele>1406.18</ele>
        <time>2017-04-23T10:08:32Z</time>
      </trkpt>
      <trkpt lat="43.86839" lon="7.27261">
        <ele>1408.19</ele>
        <time>2017-04-23T10:08:50Z</time>
      </trkpt>
      <trkpt lat="43.86822" lon="7.2725">
        <ele>1406.95</ele>
        <time>2017-04-23T10:09:15Z</time>
      </trkpt>
      <trkpt lat="43.86803" lon="7.27247">
        <ele>1405.45</ele>
        <time>2017-04-23T10:09:37Z</time>
      </trkpt>
      <trkpt lat="43.86786" lon="7.27237">
        <ele>1409.95</ele>
        <time>2017-04-23T10:10:02Z</time>
      </trkpt>
      <trkpt lat="43.86767" lon="7.27233">
        <ele>1405.14</ele>
        <time>2017-04-23T11:12:26Z</time>
      </trkpt>
      <trkpt lat="43.86752" lon="7.27221">
        <ele>1400.21</ele>
        <time>2017-04-23T11:13:00Z</time>
      </trkpt>
      <trkpt lat="43.86734" lon="7.27213">
        <ele>1397.5</ele>
        <time>2017-04-23T11:13:31Z</time>
      </trkpt>
      <trkpt lat="43.86716" lon="7.27214">
        <ele>1392.94</ele>
        <time>2017-04-23T11:14:01Z</time>
      </trkpt>
      <trkpt lat="43.86696" lon="7.27217">
        <ele>1382.41</ele>
        <time>2017-04-23T11:14:45Z</time>
      </trkpt>
      <trkpt lat="43.86678" lon="7.27216">
        <ele>1378.39</ele>
        <time>2017-04-23T11:15:06Z</time>
      </trkpt>
      <trkpt lat="43.8666" lon="7.2722">
        <ele>1377</ele>
        <time>2017-04-23T11:15:43Z</time>
      </trkpt>
      <trkpt lat="43.86642" lon="7.27222">
        <ele>1369.3</ele>
        <time>2017-04-23T11:16:12Z</time>
      </trkpt>
      <trkpt lat="43.86623" lon="7.2722">
        <ele>1361.49</ele>
        <time>2017-04-23T11:16:49Z</time>
      </trkpt>
      <trkpt lat="43.86605" lon="7.27226">
        <ele>1358</ele>
        <time>2017-04-23T11:17:03Z</time>
      </trkpt>
      <trkpt lat="43.86586" lon="7.27226">
        <ele>1359.28</ele>
        <time>2017-04-23T11:17:34Z</time>
      </trkpt>
      <trkpt lat="43.86567" lon="7.27229">
        <ele>1350.4</ele>
        <time>2017-04-23T11:18:08Z</time>
      </trkpt>
      <trkpt lat="43.86547" lon="7.27234">
        <ele>1343.96</ele>
        <time>2017-04-23T11:18:34Z</time>
      </trkpt>
      <trkpt lat="43.86528" lon="7.27239">
        <ele>1342.15</ele>
        <time>2017-04-23T11:18:53Z</time>
      </trkpt>
      <trkpt lat="43.86508" lon="7.2725">
        <ele>1341.51</ele>
        <time>2017-04-23T11:19:14Z</time>
      </trkpt>
      <trkpt lat="43.86489" lon="7.27247">
        <ele>1347.17</ele>
        <time>2017-04-23T11:19:41Z</time>
      </trkpt>
      <trkpt lat="43.86472" lon="7.27253">
        <ele>1342.19</ele>
        <time>2017-04-23T11:20:03Z</time>
      </trkpt>
      <trkpt lat="43.86454" lon="7.27252">
        <ele>1352.13</ele>
        <time>2017-04-23T11:20:39Z</time>
      </trkpt>
      <trkpt lat="43.86436" lon="7.27262">
        <ele>1353.01</ele>
        <time>2017-04-23T11:20:58Z</time>
      </trkpt>
      <trkpt lat="43.86416" lon="7.27261">
        <ele>1350.1</ele>
        <time>2017-04-23T11:21:19Z</time>
      </trkpt>
      <trkpt lat="43.86397" lon="7.2727">
        <ele>1353.59</ele>
        <time>2017-04-23T11:21:43Z</time>
      </trkpt>
      <trkpt lat="43.86379" lon="7.27267">
        <ele>1355.24</ele>
        <time>2017-04-23T11:22:04Z</time>
      </trkpt>
      <trkpt lat="43.8636" lon="7.27266">
        <ele>1344.18</ele>
        <time>2017-04-23T11:22:31Z</time>
      </trkpt>
      <trkpt lat="43.86344" lon="7.27254">
        <ele>1338.88</ele>
        <time>2017-04-23T11:22:58Z</time>
      </trkpt>
      <trkpt lat="43.86327" lon="7.27241">
        <ele>1337.16</ele>
        <time>2017-04-23T11:23:18Z</time>
      </trkpt>
      <trkpt lat="43.8631" lon="7.27231">
        <ele>1335.01</ele>
        <time>2017-04-23T11:23:39Z</time>
      </trkpt>
      <trkpt lat="43.86291" lon="7.27235">
        <ele>1328.89</ele>
        <time>2017-04-23T11:23:54Z</time>
      </trkpt>
      <trkpt lat="43.86274" lon="7.27224">
        <ele>1329.85</ele>
        <time>2017-04-23T11:24:11Z</time>
      </trkpt>
      <trkpt lat="43.86256" lon="7.27229">
        <ele>1327.55</ele>
        <time>2017-04-23T11:24:36Z</time>
      </trkpt>
      <trkpt lat="43.86237" lon="7.27227">
        <ele>1325.47</ele>
        <time>2017-04-23T11:24:56Z</time>
      </trkpt>
      <trkpt lat="43.8622" lon="7.27239">
        <ele>1320.21</ele>
        <time>2017-04-23T11:26:41Z</time>
      </trkpt>
      <trkpt lat="43.86201" lon="7.27233">
        <ele>1316.89</ele>
        <time>2017-04-23T11:27:06Z</time>
      </trkpt>
      <trkpt lat="43.86184" lon="7.27243">
        <ele>1315.55</ele>
        <time>2017-04-23T11:27:21Z</time>
      </trkpt>
      <trkpt lat="43.86165" lon="7.27243">
        <ele>1312.51</ele>
        <time>2017-04-23T11:27:57Z</time>
      </trkpt>
      <trkpt lat="43.86147" lon="7.27241">
        <ele>1305.58</ele>
        <time>2017-04-23T11:28:43Z</time>
      </trkpt>
      <trkpt lat="43.86128" lon="7.27244">
        <ele>1299.49</ele>
        <time>2017-04-23T11:29:13Z</time>
      </trkpt>
      <trkpt lat="43.86111" lon="7.27238">
        <ele>1294.56</ele>
        <time>2017-04-23T11:29:39Z</time>
      </trkpt>
      <trkpt lat="43.86093" lon="7.27234">
        <ele>1292.28</ele>
        <time>2017-04-23T11:30:06Z</time>
      </trkpt>
      <trkpt lat="43.86074" lon="7.27231">
        <ele>1290.76</ele>
        <time>2017-04-23T11:30:56Z</time>
      </trkpt>
      <trkpt lat="43.86064" lon="7.27252">
        <ele>1288.08</ele>
        <time>2017-04-23T11:31:41Z</time>
      </trkpt>
      <trkpt lat="43.86054" lon="7.27274">
        <ele>1278.43</ele>
        <time>2017-04-23T11:33:10Z</time>
      </trkpt>
      <trkpt lat="43.86038" lon="7.27259">
        <ele>1265.98</ele>
        <time>2017-04-23T11:34:31Z</time>
      </trkpt>
      <trkpt lat="43.8602" lon="7.2725">
        <ele>1267.45</ele>
        <time>2017-04-23T11:34:48Z</time>
      </trkpt>
      <trkpt lat="43.86004" lon="7.27238">
        <ele>1254.68</ele>
        <time>2017-04-23T11:38:07Z</time>
      </trkpt>
      <trkpt lat="43.85986" lon="7.27234">
        <ele>1256.66</ele>
        <time>2017-04-23T11:38:24Z</time>
      </trkpt>
      <trkpt lat="43.85968" lon="7.27228">
        <ele>1260.55</ele>
        <time>2017-04-23T11:39:00Z</time>
      </trkpt>
      <trkpt lat="43.85947" lon="7.27231">
        <ele>1260.84</ele>
        <time>2017-04-23T11:39:18Z</time>
      </trkpt>
      <trkpt lat="43.85929" lon="7.27227">
        <ele>1258.21</ele>
        <time>2017-04-23T11:39:37Z</time>
      </trkpt>
      <trkpt lat="43.85914" lon="7.27211">
        <ele>1260.2</ele>
        <time>2017-04-23T11:39:52Z</time>
      </trkpt>
      <trkpt lat="43.85897" lon="7.272">
        <ele>1256.51</ele>
        <time>2017-04-23T11:42:54Z</time>
      </trkpt>
      <trkpt lat="43.85879" lon="7.27199">
        <ele>1254.21</ele>
        <time>2017-04-23T11:43:24Z</time>
      </trkpt>
      <trkpt lat="43.8586" lon="7.27193">
        <ele>1258.3</ele>
        <time>2017-04-23T11:43:51Z</time>
      </trkpt>
      <trkpt lat="43.85841" lon="7.27193">
        <ele>1251.17</ele>
        <time>2017-04-23T11:44:05Z</time>
      </trkpt>
      <trkpt lat="43.85818" lon="7.27188">
        <ele>1253.89</ele>
        <time>2017-04-23T11:44:45Z</time>
      </trkpt>
      <trkpt lat="43.85799" lon="7.27188">
        <ele>1256.27</ele>
        <time>2017-04-23T11:44:55Z</time>
      </trkpt>
      <trkpt lat="43.85784" lon="7.27203">
        <ele>1251.27</ele>
        <time>2017-04-23T11:45:15Z</time>
      </trkpt>
      <trkpt lat="43.85765" lon="7.27196">
        <ele>1252.18</ele>
        <time>2017-04-23T11:45:35Z</time>
      </trkpt>
      <trkpt lat="43.85747" lon="7.27198">
        <ele>1242.53</ele>
        <time>2017-04-23T11:45:53Z</time>
      </trkpt>
      <trkpt lat="43.85728" lon="7.2721">
        <ele>1246.39</ele>
        <time>2017-04-23T11:46:08Z</time>
      </trkpt>
      <trkpt lat="43.85714" lon="7.27193">
        <ele>1242.74</ele>
        <time>2017-04-23T11:46:42Z</time>
      </trkpt>
      <trkpt lat="43.85695" lon="7.27182">
        <ele>1241.49</ele>
        <time>2017-04-23T11:46:57Z</time>
      </trkpt>
      <trkpt lat="43.85676" lon="7.27181">
        <ele>1240.88</ele>
        <time>2017-04-23T11:47:14Z</time>
      </trkpt>
      <trkpt lat="43.85656" lon="7.27181">
        <ele>1239.79</ele>
        <time>2017-04-23T11:47:33Z</time>
      </trkpt>
      <trkpt lat="43.8564" lon="7.2717">
        <ele>1236.31</ele>
        <time>2017-04-23T11:47:53Z</time>
      </trkpt>
      <trkpt lat="43.85623" lon="7.2718">
        <ele>1236.49</ele>
        <time>2017-04-23T11:50:35Z</time>
      </trkpt>
      <trkpt lat="43.85618" lon="7.27204">
        <ele>1235.86</ele>
        <time>2017-04-23T11:51:06Z</time>
      </trkpt>
      <trkpt lat="43.85614" lon="7.27229">
        <ele>1234.2</ele>
        <time>2017-04-23T11:51:19Z</time>
      </trkpt>
      <trkpt lat="43.85595" lon="7.27227">
        <ele>1236.3</ele>
        <time>2017-04-23T11:51:46Z</time>
      </trkpt>
      <trkpt lat="43.85578" lon="7.27219">
        <ele>1239.4</ele>
        <time>2017-04-23T11:52:02Z</time>
      </trkpt>
      <trkpt lat="43.85559" lon="7.27221">
        <ele>1238.77</ele>
        <time>2017-04-23T11:52:19Z</time>
      </trkpt>
      <trkpt lat="43.85543" lon="7.27234">
        <ele>1238.22</ele>
        <time>2017-04-23T11:52:37Z</time>
      </trkpt>
      <trkpt lat="43.85524" lon="7.27235">
        <ele>1241.07</ele>
        <time>2017-04-23T11:52:54Z</time>
      </trkpt>
      <trkpt lat="43.85509" lon="7.27249">
        <ele>1243.46</ele>
        <time>2017-04-23T11:53:17Z</time>
      </trkpt>
      <trkpt lat="43.85491" lon="7.27248">
        <ele>1239.2</ele>
        <time>2017-04-23T11:53:38Z</time>
      </trkpt>
      <trkpt lat="43.85473" lon="7.27243">
        <ele>1233.2</ele>
        <time>2017-04-23T11:54:04Z</time>
      </trkpt>
      <trkpt lat="43.85454" lon="7.27242">
        <ele>1231.13</ele>
        <time>2017-04-23T11:54:28Z</time>
      </trkpt>
      <trkpt lat="43.85436" lon="7.27248">
        <ele>1223.51</ele>
        <time>2017-04-23T11:55:04Z</time>
      </trkpt>
      <trkpt lat="43.85418" lon="7.27245">
        <ele>1218.16</ele>
        <time>2017-04-23T11:55:29Z</time>
      </trkpt>
      <trkpt lat="43.854" lon="7.2725">
        <ele>1213.88</ele>
        <time>2017-04-23T11:55:53Z</time>
      </trkpt>
      <trkpt lat="43.85382" lon="7.27252">
        <ele>1216.28</ele>
        <time>2017-04-23T11:56:16Z</time>
      </trkpt>
      <trkpt lat="43.85366" lon="7.27265">
        <ele>1212.98</ele>
        <time>2017-04-23T11:56:40Z</time>
      </trkpt>
      <trkpt lat="43.8535" lon="7.27276">
        <ele>1214.19</ele>
        <time>2017-04-23T11:57:00Z</time>
      </trkpt>
      <trkpt lat="43.85335" lon="7.2729">
        <ele>1211.19</ele>
        <time>2017-04-23T11:57:21Z</time>
      </trkpt>
      <trkpt lat="43.85317" lon="7.27291">
        <ele>1206.19</ele>
        <time>2017-04-23T11:58:06Z</time>
      </trkpt>
      <trkpt lat="43.85299" lon="7.27295">
        <ele>1205.58</ele>
        <time>2017-04-23T11:58:33Z</time>
      </trkpt>
      <trkpt lat="43.85281" lon="7.27301">
        <ele>1199.13</ele>
        <time>2017-04-23T12:00:36Z</time>
      </trkpt>
      <trkpt lat="43.85263" lon="7.27303">
        <ele>1197.24</ele>
        <time>2017-04-23T12:01:00Z</time>
      </trkpt>
      <trkpt lat="43.85246" lon="7.27291">
        <ele>1190.61</ele>
        <time>2017-04-23T12:01:23Z</time>
      </trkpt>
      <trkpt lat="43.85229" lon="7.27299">
        <ele>1185.58</ele>
        <time>2017-04-23T12:01:56Z</time>
      </trkpt>
      <trkpt lat="43.8521" lon="7.27298">
        <ele>1182.2</ele>
        <time>2017-04-23T12:02:20Z</time>
      </trkpt>
      <trkpt lat="43.85191" lon="7.27302">
        <ele>1179.28</ele>
        <time>2017-04-23T12:02:55Z</time>
      </trkpt>
      <trkpt lat="43.85174" lon="7.27294">
        <ele>1176.16</ele>
        <time>2017-04-23T12:04:28Z</time>
      </trkpt>
      <trkpt lat="43.85156" lon="7.27296">
        <ele>1175.28</ele>
        <time>2017-04-23T12:04:57Z</time>
      </trkpt>
      <trkpt lat="43.85138" lon="7.27303">
        <ele>1172.98</ele>
        <time>2017-04-23T12:05:16Z</time>
      </trkpt>
      <trkpt lat="43.8512" lon="7.273">
        <ele>1169.28</ele>
        <time>2017-04-23T12:05:41Z</time>
      </trkpt>
      <trkpt lat="43.85102" lon="7.273">
        <ele>1160.66</ele>
        <time>2017-04-23T12:06:10Z</time>
      </trkpt>
      <trkpt lat="43.85084" lon="7.27301">
        <ele>1158.18</ele>
        <time>2017-04-23T12:06:32Z</time>
      </trkpt>
      <trkpt lat="43.85065" lon="7.27295">
        <ele>1158.25</ele>
        <time>2017-04-23T12:06:51Z</time>
      </trkpt>
      <trkpt lat="43.85049" lon="7.27285">
        <ele>1158.19</ele>
        <time>2017-04-23T12:07:12Z</time>
      </trkpt>
      <trkpt lat="43.8503" lon="7.27289">
        <ele>1155.28</ele>
        <time>2017-04-23T12:07:30Z</time>
      </trkpt>
      <trkpt lat="43.85012" lon="7.27289">
        <ele>1156.19</ele>
        <time>2017-04-23T12:07:55Z</time>
      </trkpt>
      <trkpt lat="43.84994" lon="7.27298">
        <ele>1155.48</ele>
        <time>2017-04-23T12:08:18Z</time>
      </trkpt>
      <trkpt lat="43.84975" lon="7.27301">
        <ele>1154.1</ele>
        <time>2017-04-23T12:09:02Z</time>
      </trkpt>
      <trkpt lat="43.84957" lon="7.27299">
        <ele>1149.49</ele>
        <time>2017-04-23T12:09:29Z</time>
      </trkpt>
      <trkpt lat="43.84939" lon="7.27297">
        <ele>1149.19</ele>
        <time>2017-04-23T12:10:23Z</time>
      </trkpt>
      <trkpt lat="43.84922" lon="7.27288">
        <ele>1142.43</ele>
        <time>2017-04-23T12:10:51Z</time>
      </trkpt>
      <trkpt lat="43.84903" lon="7.27287">
        <ele>1141.16</ele>
        <time>2017-04-23T12:11:17Z</time>
      </trkpt>
      <trkpt lat="43.84885" lon="7.2728">
        <ele>1134.49</ele>
        <time>2017-04-23T12:11:43Z</time>
      </trkpt>
      <trkpt lat="43.84867" lon="7.27276">
        <ele>1132.89</ele>
        <time>2017-04-23T12:12:41Z</time>
      </trkpt>
      <trkpt lat="43.84849" lon="7.27273">
        <ele>1122.99</ele>
        <time>2017-04-23T12:13:22Z</time>
      </trkpt>
      <trkpt lat="43.8483" lon="7.27274">
        <ele>1124.18</ele>
        <time>2017-04-23T12:13:46Z</time>
      </trkpt>
      <trkpt lat="43.84812" lon="7.27278">
        <ele>1122.22</ele>
        <time>2017-04-23T12:14:08Z</time>
      </trkpt>
      <trkpt lat="43.84795" lon="7.27285">
        <ele>1116.36</ele>
        <time>2017-04-23T12:14:35Z</time>
      </trkpt>
      <trkpt lat="43.84777" lon="7.27278">
        <ele>1110.19</ele>
        <time>2017-04-23T12:14:58Z</time>
      </trkpt>
      <trkpt lat="43.84759" lon="7.27279">
        <ele>1110.04</ele>
        <time>2017-04-23T12:15:20Z</time>
      </trkpt>
      <trkpt lat="43.84739" lon="7.27279">
        <ele>1107.54</ele>
        <time>2017-04-23T12:15:50Z</time>
      </trkpt>
      <trkpt lat="43.84721" lon="7.27271">
        <ele>1103.1</ele>
        <time>2017-04-23T12:16:21Z</time>
      </trkpt>
      <trkpt lat="43.84704" lon="7.27264">
        <ele>1099.16</ele>
        <time>2017-04-23T12:16:50Z</time>
      </trkpt>
      <trkpt lat="43.84689" lon="7.27248">
        <ele>1092.12</ele>
        <time>2017-04-23T12:17:22Z</time>
      </trkpt>
      <trkpt lat="43.84671" lon="7.27258">
        <ele>1078.61</ele>
        <time>2017-04-23T12:18:23Z</time>
      </trkpt>
      <trkpt lat="43.84652" lon="7.27258">
        <ele>1079.1</ele>
        <time>2017-04-23T12:18:37Z</time>
      </trkpt>
      <trkpt lat="43.84647" lon="7.27282">
        <ele>1080.86</ele>
        <time>2017-04-23T12:18:58Z</time>
      </trkpt>
      <trkpt lat="43.84628" lon="7.27283">
        <ele>1080.19</ele>
        <time>2017-04-23T12:19:39Z</time>
      </trkpt>
      <trkpt lat="43.8461" lon="7.27285">
        <ele>1079.38</ele>
        <time>2017-04-23T12:19:47Z</time>
      </trkpt>
      <trkpt lat="43.84591" lon="7.27282">
        <ele>1075.83</ele>
        <time>2017-04-23T12:20:08Z</time>
      </trkpt>
      <trkpt lat="43.84572" lon="7.27275">
        <ele>1075.95</ele>
        <time>2017-04-23T12:20:25Z</time>
      </trkpt>
      <trkpt lat="43.84563" lon="7.27252">
        <ele>1075.55</ele>
        <time>2017-04-23T12:20:48Z</time>
      </trkpt>
      <trkpt lat="43.84558" lon="7.27226">
        <ele>1070.88</ele>
        <time>2017-04-23T12:21:21Z</time>
      </trkpt>
      <trkpt lat="43.84539" lon="7.27218">
        <ele>1064.11</ele>
        <time>2017-04-23T12:21:48Z</time>
      </trkpt>
      <trkpt lat="43.84525" lon="7.27201">
        <ele>1064.16</ele>
        <time>2017-04-23T12:22:10Z</time>
      </trkpt>
      <trkpt lat="43.84514" lon="7.27221">
        <ele>1066.91</ele>
        <time>2017-04-23T12:22:32Z</time>
      </trkpt>
      <trkpt lat="43.84495" lon="7.27222">
        <ele>1067.15</ele>
        <time>2017-04-23T12:22:54Z</time>
      </trkpt>
      <trkpt lat="43.84478" lon="7.27229">
        <ele>1061.87</ele>
        <time>2017-04-23T12:23:19Z</time>
      </trkpt>
      <trkpt lat="43.8446" lon="7.2723">
        <ele>1062.16</ele>
        <time>2017-04-23T12:23:40Z</time>
      </trkpt>
      <trkpt lat="43.84441" lon="7.27227">
        <ele>1055.27</ele>
        <time>2017-04-23T12:24:05Z</time>
      </trkpt>
      <trkpt lat="43.84421" lon="7.27231">
        <ele>1051.19</ele>
        <time>2017-04-23T12:24:37Z</time>
      </trkpt>
      <trkpt lat="43.84401" lon="7.27232">
        <ele>1051.94</ele>
        <time>2017-04-23T12:24:53Z</time>
      </trkpt>
      <trkpt lat="43.84383" lon="7.27232">
        <ele>1051.98</ele>
        <time>2017-04-23T12:25:07Z</time>
      </trkpt>
      <trkpt lat="43.84365" lon="7.27239">
        <ele>1046.04</ele>
        <time>2017-04-23T12:25:40Z</time>
      </trkpt>
      <trkpt lat="43.84347" lon="7.27248">
        <ele>1040.89</ele>
        <time>2017-04-23T12:26:01Z</time>
      </trkpt>
      <trkpt lat="43.84333" lon="7.27264">
        <ele>1030.5</ele>
        <time>2017-04-23T12:26:23Z</time>
      </trkpt>
      <trkpt lat="43.84316" lon="7.27276">
        <ele>1032.92</ele>
        <time>2017-04-23T12:26:58Z</time>
      </trkpt>
      <trkpt lat="43.84297" lon="7.27288">
        <ele>1034.08</ele>
        <time>2017-04-23T12:27:10Z</time>
      </trkpt>
      <trkpt lat="43.84294" lon="7.27315">
        <ele>1024.73</ele>
        <time>2017-04-23T12:27:32Z</time>
      </trkpt>
      <trkpt lat="43.84275" lon="7.27318">
        <ele>1019.87</ele>
        <time>2017-04-23T12:28:14Z</time>
      </trkpt>
      <trkpt lat="43.8426" lon="7.27334">
        <ele>1017.96</ele>
        <time>2017-04-23T12:28:40Z</time>
      </trkpt>
      <trkpt lat="43.84247" lon="7.27352">
        <ele>1017.17</ele>
        <time>2017-04-23T12:29:15Z</time>
      </trkpt>
      <trkpt lat="43.84228" lon="7.27352">
        <ele>1006.99</ele>
        <time>2017-04-23T12:30:06Z</time>
      </trkpt>
      <trkpt lat="43.84209" lon="7.27351">
        <ele>992.31</ele>
        <time>2017-04-23T12:31:16Z</time>
      </trkpt>
      <trkpt lat="43.84191" lon="7.27344">
        <ele>985.78</ele>
        <time>2017-04-23T12:31:32Z</time>
      </trkpt>
      <trkpt lat="43.84175" lon="7.27332">
        <ele>968.36</ele>
        <time>2017-04-23T12:32:01Z</time>
      </trkpt>
      <trkpt lat="43.84156" lon="7.27336">
        <ele>971.02</ele>
        <time>2017-04-23T12:32:39Z</time>
      </trkpt>
      <trkpt lat="43.84138" lon="7.27328">
        <ele>971.89</ele>
        <time>2017-04-23T12:33:08Z</time>
      </trkpt>
      <trkpt lat="43.8412" lon="7.27325">
        <ele>965.9</ele>
        <time>2017-04-23T12:33:21Z</time>
      </trkpt>
      <trkpt lat="43.84101" lon="7.27322">
        <ele>962.18</ele>
        <time>2017-04-23T12:33:34Z</time>
      </trkpt>
      <trkpt lat="43.84083" lon="7.27317">
        <ele>963.21</ele>
        <time>2017-04-23T12:33:55Z</time>
      </trkpt>
      <trkpt lat="43.84065" lon="7.27322">
        <ele>961.28</ele>
        <time>2017-04-23T12:34:15Z</time>
      </trkpt>
      <trkpt lat="43.84046" lon="7.27326">
        <ele>957.51</ele>
        <time>2017-04-23T12:34:38Z</time>
      </trkpt>
      <trkpt lat="43.8403" lon="7.27338">
        <ele>953.97</ele>
        <time>2017-04-23T12:34:58Z</time>
      </trkpt>
      <trkpt lat="43.84012" lon="7.27341">
        <ele>944.29</ele>
        <time>2017-04-23T12:35:29Z</time>
      </trkpt>
      <trkpt lat="43.83994" lon="7.27337">
        <ele>945.4</ele>
        <time>2017-04-23T12:35:49Z</time>
      </trkpt>
      <trkpt lat="43.83976" lon="7.27346">
        <ele>943.98</ele>
        <time>2017-04-23T12:36:06Z</time>
      </trkpt>
      <trkpt lat="43.83958" lon="7.27347">
        <ele>940.19</ele>
        <time>2017-04-23T12:36:33Z</time>
      </trkpt>
      <trkpt lat="43.83939" lon="7.27348">
        <ele>936.79</ele>
        <time>2017-04-23T12:37:05Z</time>
      </trkpt>
      <trkpt lat="43.83924" lon="7.27363">
        <ele>929.19</ele>
        <time>2017-04-23T12:37:35Z</time>
      </trkpt>
      <trkpt lat="43.83907" lon="7.27369">
        <ele>923.97</ele>
        <time>2017-04-23T12:38:06Z</time>
      </trkpt>
      <trkpt lat="43.83889" lon="7.27377">
        <ele>923.48</ele>
        <time>2017-04-23T12:38:34Z</time>
      </trkpt>
      <trkpt lat="43.8387" lon="7.27379">
        <ele>907.51</ele>
        <time>2017-04-23T12:39:06Z</time>
      </trkpt>
      <trkpt lat="43.83855" lon="7.27363">
        <ele>905.28</ele>
        <time>2017-04-23T12:39:27Z</time>
      </trkpt>
      <trkpt lat="43.83847" lon="7.2734">
        <ele>908.49</ele>
        <time>2017-04-23T12:39:49Z</time>
      </trkpt>
      <trkpt lat="43.83847" lon="7.27314">
        <ele>899.92</ele>
        <time>2017-04-23T12:40:16Z</time>
      </trkpt>
      <trkpt lat="43.83855" lon="7.2729">
        <ele>901.34</ele>
        <time>2017-04-23T12:40:40Z</time>
      </trkpt>
      <trkpt lat="43.83852" lon="7.27264">
        <ele>894.38</ele>
        <time>2017-04-23T12:54:41Z</time>
      </trkpt>
      <trkpt lat="43.8385" lon="7.27239">
        <ele>890.87</ele>
        <time>2017-04-23T12:55:06Z</time>
      </trkpt>
      <trkpt lat="43.83853" lon="7.27214">
        <ele>878.4</ele>
        <time>2017-04-23T12:56:00Z</time>
      </trkpt>
      <trkpt lat="43.83865" lon="7.27196">
        <ele>873.81</ele>
        <time>2017-04-23T12:56:25Z</time>
      </trkpt>
      <trkpt lat="43.8388" lon="7.2718">
        <ele>873.46</ele>
        <time>2017-04-23T12:56:40Z</time>
      </trkpt>
      <trkpt lat="43.83895" lon="7.27164">
        <ele>870.87</ele>
        <time>2017-04-23T12:56:59Z</time>
      </trkpt>
      <trkpt lat="43.83908" lon="7.27146">
        <ele>868.5</ele>
        <time>2017-04-23T12:57:16Z</time>
      </trkpt>
      <trkpt lat="43.83921" lon="7.27128">
        <ele>863.37</ele>
        <time>2017-04-23T12:57:42Z</time>
      </trkpt>
      <trkpt lat="43.83929" lon="7.27105">
        <ele>860.9</ele>
        <time>2017-04-23T12:58:08Z</time>
      </trkpt>
      <trkpt lat="43.83946" lon="7.27094">
        <ele>860.87</ele>
        <time>2017-04-23T12:58:22Z</time>
      </trkpt>
      <trkpt lat="43.83963" lon="7.27078">
        <ele>858.1</ele>
        <time>2017-04-23T12:59:05Z</time>
      </trkpt>
      <trkpt lat="43.83981" lon="7.2707">
        <ele>857.39</ele>
        <time>2017-04-23T12:59:18Z</time>
      </trkpt>
      <trkpt lat="43.8399" lon="7.27047">
        <ele>855.28</ele>
        <time>2017-04-23T12:59:34Z</time>
      </trkpt>
      <trkpt lat="43.84007" lon="7.27035">
        <ele>840.82</ele>
        <time>2017-04-23T12:59:48Z</time>
      </trkpt>
      <trkpt lat="43.84017" lon="7.27014">
        <ele>837.27</ele>
        <time>2017-04-23T13:00:05Z</time>
      </trkpt>
      <trkpt lat="43.84031" lon="7.26997">
        <ele>836.35</ele>
        <time>2017-04-23T13:00:25Z</time>
      </trkpt>
      <trkpt lat="43.84038" lon="7.26973">
        <ele>837.39</ele>
        <time>2017-04-23T13:00:46Z</time>
      </trkpt>
      <trkpt lat="43.84051" lon="7.26954">
        <ele>837.91</ele>
        <time>2017-04-23T13:01:09Z</time>
      </trkpt>
      <trkpt lat="43.84067" lon="7.26938">
        <ele>836.17</ele>
        <time>2017-04-23T13:01:30Z</time>
      </trkpt>
      <trkpt lat="43.8408" lon="7.2692">
        <ele>838.97</ele>
        <time>2017-04-23T13:02:05Z</time>
      </trkpt>
      <trkpt lat="43.84097" lon="7.26908">
        <ele>832.61</ele>
        <time>2017-04-23T13:02:17Z</time>
      </trkpt>
      <trkpt lat="43.84112" lon="7.26892">
        <ele>831.81</ele>
        <time>2017-04-23T13:02:38Z</time>
      </trkpt>
      <trkpt lat="43.84125" lon="7.26874">
        <ele>831.57</ele>
        <time>2017-04-23T13:03:00Z</time>
      </trkpt>
      <trkpt lat="43.84138" lon="7.26856">
        <ele>829.18</ele>
        <time>2017-04-23T13:03:21Z</time>
      </trkpt>
      <trkpt lat="43.84149" lon="7.26837">
        <ele>827.11</ele>
        <time>2017-04-23T13:03:43Z</time>
      </trkpt>
      <trkpt lat="43.84166" lon="7.26825">
        <ele>825.84</ele>
        <time>2017-04-23T13:04:00Z</time>
      </trkpt>
      <trkpt lat="43.8418" lon="7.26809">
        <ele>819</ele>
        <time>2017-04-23T13:04:24Z</time>
      </trkpt>
      <trkpt lat="43.84198" lon="7.26799">
        <ele>817.89</ele>
        <time>2017-04-23T13:04:48Z</time>
      </trkpt>
      <trkpt lat="43.84209" lon="7.26776">
        <ele>818.21</ele>
        <time>2017-04-23T13:05:07Z</time>
      </trkpt>
      <trkpt lat="43.84221" lon="7.26754">
        <ele>817.46</ele>
        <time>2017-04-23T13:05:45Z</time>
      </trkpt>
      <trkpt lat="43.84236" lon="7.2674">
        <ele>809.66</ele>
        <time>2017-04-23T13:05:58Z</time>
      </trkpt>
      <trkpt lat="43.84253" lon="7.26729">
        <ele>803.43</ele>
        <time>2017-04-23T13:06:17Z</time>
      </trkpt>
      <trkpt lat="43.84271" lon="7.26719">
        <ele>807.17</ele>
        <time>2017-04-23T13:06:41Z</time>
      </trkpt>
      <trkpt lat="43.84286" lon="7.26704">
        <ele>801.37</ele>
        <time>2017-04-23T13:06:59Z</time>
      </trkpt>
      <trkpt lat="43.84304" lon="7.26697">
        <ele>797.9</ele>
        <time>2017-04-23T13:07:19Z</time>
      </trkpt>
      <trkpt lat="43.84322" lon="7.26688">
        <ele>794.07</ele>
        <time>2017-04-23T13:07:39Z</time>
      </trkpt>
      <trkpt lat="43.84339" lon="7.26677">
        <ele>791.24</ele>
        <time>2017-04-23T13:07:52Z</time>
      </trkpt>
      <trkpt lat="43.84356" lon="7.26671">
        <ele>795.3</ele>
        <time>2017-04-23T13:08:11Z</time>
      </trkpt>
      <trkpt lat="43.84376" lon="7.26673">
        <ele>796.49</ele>
        <time>2017-04-23T13:08:30Z</time>
      </trkpt>
      <trkpt lat="43.84385" lon="7.2665">
        <ele>795</ele>
        <time>2017-04-23T13:08:51Z</time>
      </trkpt>
      <trkpt lat="43.84404" lon="7.26649">
        <ele>783.95</ele>
        <time>2017-04-23T13:09:02Z</time>
      </trkpt>
      <trkpt lat="43.84401" lon="7.26622">
        <ele>782.6</ele>
        <time>2017-04-23T13:09:23Z</time>
      </trkpt>
      <trkpt lat="43.84391" lon="7.26597">
        <ele>782.77</ele>
        <time>2017-04-23T13:09:42Z</time>
      </trkpt>
      <trkpt lat="43.84374" lon="7.26583">
        <ele>785.82</ele>
        <time>2017-04-23T13:09:55Z</time>
      </trkpt>
      <trkpt lat="43.84366" lon="7.2656">
        <ele>778.51</ele>
        <time>2017-04-23T13:10:16Z</time>
      </trkpt>
      <trkpt lat="43.84357" lon="7.26536">
        <ele>774.1</ele>
        <time>2017-04-23T13:10:37Z</time>
      </trkpt>
      <trkpt lat="43.84369" lon="7.26515">
        <ele>780.48</ele>
        <time>2017-04-23T13:10:55Z</time>
      </trkpt>
      <trkpt lat="43.84384" lon="7.265">
        <ele>779.4</ele>
        <time>2017-04-23T13:11:09Z</time>
      </trkpt>
      <trkpt lat="43.84394" lon="7.26478">
        <ele>780.66</ele>
        <time>2017-04-23T13:11:35Z</time>
      </trkpt>
      <trkpt lat="43.84409" lon="7.26464">
        <ele>774.48</ele>
        <time>2017-04-23T13:11:52Z</time>
      </trkpt>
      <trkpt lat="43.84427" lon="7.26456">
        <ele>770.31</ele>
        <time>2017-04-23T13:12:04Z</time>
      </trkpt>
      <trkpt lat="43.84441" lon="7.26439">
        <ele>774.21</ele>
        <time>2017-04-23T13:12:33Z</time>
      </trkpt>
      <trkpt lat="43.84454" lon="7.26422">
        <ele>771.06</ele>
        <time>2017-04-23T13:12:58Z</time>
      </trkpt>
      <trkpt lat="43.84466" lon="7.26402">
        <ele>768.22</ele>
        <time>2017-04-23T13:13:19Z</time>
      </trkpt>
      <trkpt lat="43.84479" lon="7.26384">
        <ele>766.6</ele>
        <time>2017-04-23T13:13:37Z</time>
      </trkpt>
      <trkpt lat="43.84496" lon="7.2637">
        <ele>766.5</ele>
        <time>2017-04-23T13:14:00Z</time>
      </trkpt>
      <trkpt lat="43.84513" lon="7.2636">
        <ele>770.48</ele>
        <time>2017-04-23T13:14:17Z</time>
      </trkpt>
      <trkpt lat="43.84528" lon="7.26346">
        <ele>766.38</ele>
        <time>2017-04-23T13:14:39Z</time>
      </trkpt>
      <trkpt lat="43.84542" lon="7.26328">
        <ele>768.85</ele>
        <time>2017-04-23T13:14:56Z</time>
      </trkpt>
      <trkpt lat="43.84553" lon="7.26309">
        <ele>764.49</ele>
        <time>2017-04-23T13:15:18Z</time>
      </trkpt>
      <trkpt lat="43.84567" lon="7.2629">
        <ele>764.18</ele>
        <time>2017-04-23T13:15:34Z</time>
      </trkpt>
      <trkpt lat="43.84571" lon="7.26266">
        <ele>760.89</ele>
        <time>2017-04-23T13:15:56Z</time>
      </trkpt>
      <trkpt lat="43.84579" lon="7.26243">
        <ele>759.25</ele>
        <time>2017-04-23T13:16:13Z</time>
      </trkpt>
      <trkpt lat="43.8459" lon="7.26221">
        <ele>755.19</ele>
        <time>2017-04-23T13:16:32Z</time>
      </trkpt>
      <trkpt lat="43.84596" lon="7.26197">
        <ele>751.2</ele>
        <time>2017-04-23T13:16:52Z</time>
      </trkpt>
      <trkpt lat="43.84604" lon="7.26173">
        <ele>756.48</ele>
        <time>2017-04-23T13:17:13Z</time>
      </trkpt>
      <trkpt lat="43.84616" lon="7.26155">
        <ele>757.18</ele>
        <time>2017-04-23T13:17:56Z</time>
      </trkpt>
      <trkpt lat="43.84634" lon="7.26157">
        <ele>753.1</ele>
        <time>2017-04-23T13:18:17Z</time>
      </trkpt>
      <trkpt lat="43.84654" lon="7.26158">
        <ele>750.4</ele>
        <time>2017-04-23T13:18:48Z</time>
      </trkpt>
      <trkpt lat="43.84672" lon="7.26147">
        <ele>744.58</ele>
        <time>2017-04-23T13:19:07Z</time>
      </trkpt>
      <trkpt lat="43.84684" lon="7.26127">
        <ele>738.02</ele>
        <time>2017-04-23T13:19:34Z</time>
      </trkpt>
      <trkpt lat="43.84699" lon="7.26112">
        <ele>737.96</ele>
        <time>2017-04-23T13:19:50Z</time>
      </trkpt>
      <trkpt lat="43.84714" lon="7.26094">
        <ele>742.73</ele>
        <time>2017-04-23T13:20:11Z</time>
      </trkpt>
      <trkpt lat="43.84729" lon="7.2608">
        <ele>734.45</ele>
        <time>2017-04-23T13:20:30Z</time>
      </trkpt>
      <trkpt lat="43.84746" lon="7.26069">
        <ele>733.22</ele>
        <time>2017-04-23T13:20:50Z</time>
      </trkpt>
      <trkpt lat="43.84764" lon="7.26062">
        <ele>725.99</ele>
        <time>2017-04-23T13:21:08Z</time>
      </trkpt>
      <trkpt lat="43.84782" lon="7.26055">
        <ele>726.4</ele>
        <time>2017-04-23T13:21:23Z</time>
      </trkpt>
      <trkpt lat="43.84797" lon="7.26039">
        <ele>724.16</ele>
        <time>2017-04-23T13:21:41Z</time>
      </trkpt>
      <trkpt lat="43.84814" lon="7.26035">
        <ele>719.67</ele>
        <time>2017-04-23T13:22:07Z</time>
      </trkpt>
      <trkpt lat="43.84833" lon="7.26029">
        <ele>715.21</ele>
        <time>2017-04-23T13:22:29Z</time>
      </trkpt>
      <trkpt lat="43.8485" lon="7.26019">
        <ele>711.19</ele>
        <time>2017-04-23T13:22:55Z</time>
      </trkpt>
      <trkpt lat="43.84863" lon="7.26001">
        <ele>711.39</ele>
        <time>2017-04-23T13:23:12Z</time>
      </trkpt>
      <trkpt lat="43.84872" lon="7.25979">
        <ele>708.61</ele>
        <time>2017-04-23T13:23:32Z</time>
      </trkpt>
      <trkpt lat="43.84875" lon="7.25954">
        <ele>708.8</ele>
        <time>2017-04-23T13:23:47Z</time>
      </trkpt>
      <trkpt lat="43.84888" lon="7.25933">
        <ele>710.48</ele>
        <time>2017-04-23T13:24:03Z</time>
      </trkpt>
      <trkpt lat="43.849" lon="7.25913">
        <ele>707.17</ele>
        <time>2017-04-23T13:24:21Z</time>
      </trkpt>
      <trkpt lat="43.84916" lon="7.25899">
        <ele>701.6</ele>
        <time>2017-04-23T13:24:38Z</time>
      </trkpt>
      <trkpt lat="43.84933" lon="7.25891">
        <ele>698.45</ele>
        <time>2017-04-23T13:25:01Z</time>
      </trkpt>
      <trkpt lat="43.8495" lon="7.25881">
        <ele>691.48</ele>
        <time>2017-04-23T13:25:33Z</time>
      </trkpt>
      <trkpt lat="43.84967" lon="7.25891">
        <ele>688.48</ele>
        <time>2017-04-23T13:26:10Z</time>
      </trkpt>
      <trkpt lat="43.84984" lon="7.25898">
        <ele>684.58</ele>
        <time>2017-04-23T13:26:35Z</time>
      </trkpt>
      <trkpt lat="43.84998" lon="7.25883">
        <ele>675.87</ele>
        <time>2017-04-23T13:27:02Z</time>
      </trkpt>
      <trkpt lat="43.85012" lon="7.25864">
        <ele>675.84</ele>
        <time>2017-04-23T13:27:25Z</time>
      </trkpt>
      <trkpt lat="43.8503" lon="7.25858">
        <ele>674.12</ele>
        <time>2017-04-23T13:27:57Z</time>
      </trkpt>
      <trkpt lat="43.85046" lon="7.25871">
        <ele>665.3</ele>
        <time>2017-04-23T13:28:16Z</time>
      </trkpt>
      <trkpt lat="43.85066" lon="7.25863">
        <ele>655.5</ele>
        <time>2017-04-23T13:28:41Z</time>
      </trkpt>
      <trkpt lat="43.85085" lon="7.25859">
        <ele>652.78</ele>
        <time>2017-04-23T13:28:59Z</time>
      </trkpt>
      <trkpt lat="43.85086" lon="7.25833">
        <ele>653.22</ele>
        <time>2017-04-23T13:29:18Z</time>
      </trkpt>
      <trkpt lat="43.85075" lon="7.25812">
        <ele>656.89</ele>
        <time>2017-04-23T13:29:32Z</time>
      </trkpt>
      <trkpt lat="43.85069" lon="7.25789">
        <ele>653.13</ele>
        <time>2017-04-23T13:29:48Z</time>
      </trkpt>
      <trkpt lat="43.85071" lon="7.25763">
        <ele>652.47</ele>
        <time>2017-04-23T13:30:10Z</time>
      </trkpt>
      <trkpt lat="43.8507" lon="7.25738">
        <ele>651.18</ele>
        <time>2017-04-23T13:30:27Z</time>
      </trkpt>
      <trkpt lat="43.85061" lon="7.25715">
        <ele>649.39</ele>
        <time>2017-04-23T13:30:44Z</time>
      </trkpt>
      <trkpt lat="43.85063" lon="7.25689">
        <ele>653.12</ele>
        <time>2017-04-23T13:31:04Z</time>
      </trkpt>
      <trkpt lat="43.85056" lon="7.25666">
        <ele>652.01</ele>
        <time>2017-04-23T13:31:21Z</time>
      </trkpt>
      <trkpt lat="43.85052" lon="7.2564">
        <ele>659.1</ele>
        <time>2017-04-23T13:31:40Z</time>
      </trkpt>
      <trkpt lat="43.85051" lon="7.25615">
        <ele>662.46</ele>
        <time>2017-04-23T13:31:56Z</time>
      </trkpt>
      <trkpt lat="43.85062" lon="7.25593">
        <ele>665.88</ele>
        <time>2017-04-23T13:32:14Z</time>
      </trkpt>
      <trkpt lat="43.85075" lon="7.25576">
        <ele>666.92</ele>
        <time>2017-04-23T13:32:25Z</time>
      </trkpt>
      <trkpt lat="43.85066" lon="7.25554">
        <ele>669.16</ele>
        <time>2017-04-23T13:32:43Z</time>
      </trkpt>
      <trkpt lat="43.85051" lon="7.25542">
        <ele>668.49</ele>
        <time>2017-04-23T13:33:01Z</time>
      </trkpt>
      <trkpt lat="43.8504" lon="7.2552">
        <ele>655.97</ele>
        <time>2017-04-23T13:33:28Z</time>
      </trkpt>
      <trkpt lat="43.85025" lon="7.25507">
        <ele>662.91</ele>
        <time>2017-04-23T13:33:43Z</time>
      </trkpt>
      <trkpt lat="43.85009" lon="7.25492">
        <ele>670.22</ele>
        <time>2017-04-23T13:34:06Z</time>
      </trkpt>
      <trkpt lat="43.84994" lon="7.25475">
        <ele>661.21</ele>
        <time>2017-04-23T13:34:33Z</time>
      </trkpt>
      <trkpt lat="43.84978" lon="7.25464">
        <ele>668.7</ele>
        <time>2017-04-23T13:34:48Z</time>
      </trkpt>
      <trkpt lat="43.84962" lon="7.25453">
        <ele>677.88</ele>
        <time>2017-04-23T13:35:10Z</time>
      </trkpt>
      <trkpt lat="43.84943" lon="7.25447">
        <ele>673.07</ele>
        <time>2017-04-23T13:35:36Z</time>
      </trkpt>
      <trkpt lat="43.84927" lon="7.25436">
        <ele>673.1</ele>
        <time>2017-04-23T13:35:54Z</time>
      </trkpt>
      <trkpt lat="43.8491" lon="7.25431">
        <ele>675.08</ele>
        <time>2017-04-23T13:36:13Z</time>
      </trkpt>
      <trkpt lat="43.84891" lon="7.25423">
        <ele>675.18</ele>
        <time>2017-04-23T13:36:42Z</time>
      </trkpt>
      <trkpt lat="43.84876" lon="7.25409">
        <ele>676.21</ele>
        <time>2017-04-23T13:37:01Z</time>
      </trkpt>
      <trkpt lat="43.84861" lon="7.25393">
        <ele>681.88</ele>
        <time>2017-04-23T13:37:29Z</time>
      </trkpt>
      <trkpt lat="43.84844" lon="7.2538">
        <ele>683.21</ele>
        <time>2017-04-23T13:37:49Z</time>
      </trkpt>
      <trkpt lat="43.84829" lon="7.25366">
        <ele>684.39</ele>
        <time>2017-04-23T13:38:08Z</time>
      </trkpt>
      <trkpt lat="43.84812" lon="7.25354">
        <ele>690.87</ele>
        <time>2017-04-23T13:38:28Z</time>
      </trkpt>
      <trkpt lat="43.84796" lon="7.25338">
        <ele>693.13</ele>
        <time>2017-04-23T13:38:48Z</time>
      </trkpt>
      <trkpt lat="43.84781" lon="7.25324">
        <ele>697.99</ele>
        <time>2017-04-23T13:39:08Z</time>
      </trkpt>
      <trkpt lat="43.84764" lon="7.25312">
        <ele>697.84</ele>
        <time>2017-04-23T13:39:28Z</time>
      </trkpt>
      <trkpt lat="43.84746" lon="7.25302">
        <ele>697.16</ele>
        <time>2017-04-23T13:39:45Z</time>
      </trkpt>
      <trkpt lat="43.8473" lon="7.25288">
        <ele>695.61</ele>
        <time>2017-04-23T13:40:03Z</time>
      </trkpt>
      <trkpt lat="43.84714" lon="7.25277">
        <ele>689.92</ele>
        <time>2017-04-23T13:40:21Z</time>
      </trkpt>
      <trkpt lat="43.84698" lon="7.25265">
        <ele>694.88</ele>
        <time>2017-04-23T13:40:43Z</time>
      </trkpt>
      <trkpt lat="43.84696" lon="7.25238">
        <ele>694.16</ele>
        <time>2017-04-23T13:41:11Z</time>
      </trkpt>
      <trkpt lat="43.84711" lon="7.25223">
        <ele>689.49</ele>
        <time>2017-04-23T13:41:40Z</time>
      </trkpt>
      <trkpt lat="43.84728" lon="7.25213">
        <ele>686.48</ele>
        <time>2017-04-23T13:42:06Z</time>
      </trkpt>
      <trkpt lat="43.84741" lon="7.25195">
        <ele>681.91</ele>
        <time>2017-04-23T13:42:24Z</time>
      </trkpt>
      <trkpt lat="43.8475" lon="7.25173">
        <ele>682.48</ele>
        <time>2017-04-23T13:42:41Z</time>
      </trkpt>
      <trkpt lat="43.84748" lon="7.25147">
        <ele>679.1</ele>
        <time>2017-04-23T13:43:01Z</time>
      </trkpt>
      <trkpt lat="43.84755" lon="7.25123">
        <ele>677.18</ele>
        <time>2017-04-23T13:43:20Z</time>
      </trkpt>
      <trkpt lat="43.8477" lon="7.25109">
        <ele>675.25</ele>
        <time>2017-04-23T13:43:39Z</time>
      </trkpt>
      <trkpt lat="43.84783" lon="7.25091">
        <ele>671.21</ele>
        <time>2017-04-23T13:43:54Z</time>
      </trkpt>
      <trkpt lat="43.8479" lon="7.25067">
        <ele>668.18</ele>
        <time>2017-04-23T13:44:48Z</time>
      </trkpt>
      <trkpt lat="43.84784" lon="7.25043">
        <ele>669.18</ele>
        <time>2017-04-23T13:45:03Z</time>
      </trkpt>
      <trkpt lat="43.84765" lon="7.25035">
        <ele>669.49</ele>
        <time>2017-04-23T13:45:22Z</time>
      </trkpt>
    </trkseg>
  </trk>
</gpx>